sensor_id;sensor_type;location;lat;lon;timestamp;P1;durP1;ratioP1;P2;durP2;ratioP2
71777;SDS011;59609;52.430;4.668;2023-06-26T00:01:02;6.13;;;3.95;;
71777;SDS011;59609;52.430;4.668;2023-06-26T00:03:31;4.47;;;3.80;;
71777;SDS011;59609;52.430;4.668;2023-06-26T00:05:57;4.95;;;3.70;;
71777;SDS011;59609;52.430;4.668;2023-06-26T00:08:28;4.90;;;4.00;;
71777;SDS011;59609;52.430;4.668;2023-06-26T00:10:53;5.75;;;3.90;;
71777;SDS011;59609;52.430;4.668;2023-06-26T00:13:19;5.18;;;3.80;;
71777;SDS011;59609;52.430;4.668;2023-06-26T00:15:48;5.15;;;3.78;;
71777;SDS011;59609;52.430;4.668;2023-06-26T00:18:13;5.82;;;4.43;;
71777;SDS011;59609;52.430;4.668;2023-06-26T00:20:44;7.05;;;4.30;;
71777;SDS011;59609;52.430;4.668;2023-06-26T00:23:11;6.15;;;4.53;;
71777;SDS011;59609;52.430;4.668;2023-06-26T00:25:40;6.53;;;4.15;;
71777;SDS011;59609;52.430;4.668;2023-06-26T00:28:06;6.72;;;4.80;;
71777;SDS011;59609;52.430;4.668;2023-06-26T00:30:31;5.38;;;4.03;;
71777;SDS011;59609;52.430;4.668;2023-06-26T00:33:00;6.38;;;4.15;;
71777;SDS011;59609;52.430;4.668;2023-06-26T00:35:26;6.47;;;4.20;;
71777;SDS011;59609;52.430;4.668;2023-06-26T00:37:57;7.30;;;3.80;;
71777;SDS011;59609;52.430;4.668;2023-06-26T00:40:32;7.22;;;4.20;;
71777;SDS011;59609;52.430;4.668;2023-06-26T00:43:01;10.10;;;4.50;;
71777;SDS011;59609;52.430;4.668;2023-06-26T00:45:32;6.78;;;4.07;;
71777;SDS011;59609;52.430;4.668;2023-06-26T00:47:58;8.52;;;4.20;;
71777;SDS011;59609;52.430;4.668;2023-06-26T00:50:32;8.70;;;4.05;;
71777;SDS011;59609;52.430;4.668;2023-06-26T00:52:58;8.55;;;4.47;;
71777;SDS011;59609;52.430;4.668;2023-06-26T00:55:28;8.38;;;4.32;;
71777;SDS011;59609;52.430;4.668;2023-06-26T00:58:00;9.43;;;4.10;;
71777;SDS011;59609;52.430;4.668;2023-06-26T01:00:32;9.95;;;4.47;;
71777;SDS011;59609;52.430;4.668;2023-06-26T01:02:57;7.40;;;4.40;;
71777;SDS011;59609;52.430;4.668;2023-06-26T01:05:36;9.40;;;4.78;;
71777;SDS011;59609;52.430;4.668;2023-06-26T01:08:06;8.82;;;4.40;;
71777;SDS011;59609;52.430;4.668;2023-06-26T01:10:36;8.30;;;4.20;;
71777;SDS011;59609;52.430;4.668;2023-06-26T01:13:02;10.60;;;3.95;;
71777;SDS011;59609;52.430;4.668;2023-06-26T01:15:27;11.05;;;4.13;;
71777;SDS011;59609;52.430;4.668;2023-06-26T01:17:55;9.55;;;4.38;;
71777;SDS011;59609;52.430;4.668;2023-06-26T01:20:38;9.45;;;3.90;;
71777;SDS011;59609;52.430;4.668;2023-06-26T01:28:45;9.43;;;4.15;;
71777;SDS011;59609;52.430;4.668;2023-06-26T01:31:14;12.90;;;4.30;;
71777;SDS011;59609;52.430;4.668;2023-06-26T01:33:40;16.75;;;4.70;;
71777;SDS011;59609;52.430;4.668;2023-06-26T01:36:09;10.55;;;3.92;;
71777;SDS011;59609;52.430;4.668;2023-06-26T01:38:38;13.07;;;4.40;;
71777;SDS011;59609;52.430;4.668;2023-06-26T01:41:06;18.83;;;4.03;;
71777;SDS011;59609;52.430;4.668;2023-06-26T01:49:22;18.02;;;4.28;;
71777;SDS011;59609;52.430;4.668;2023-06-26T02:00:06;20.15;;;5.05;;
71777;SDS011;59609;52.430;4.668;2023-06-26T02:02:41;17.35;;;5.15;;
71777;SDS011;59609;52.430;4.668;2023-06-26T02:05:07;18.55;;;5.35;;
71777;SDS011;59609;52.430;4.668;2023-06-26T02:07:35;13.95;;;4.40;;
71777;SDS011;59609;52.430;4.668;2023-06-26T02:10:01;13.20;;;4.97;;
71777;SDS011;59609;52.430;4.668;2023-06-26T02:12:30;14.48;;;5.03;;
71777;SDS011;59609;52.430;4.668;2023-06-26T02:14:59;19.60;;;4.45;;
71777;SDS011;59609;52.430;4.668;2023-06-26T02:17:24;17.10;;;4.43;;
71777;SDS011;59609;52.430;4.668;2023-06-26T02:20:02;12.07;;;4.70;;
71777;SDS011;59609;52.430;4.668;2023-06-26T02:22:28;17.58;;;4.75;;
71777;SDS011;59609;52.430;4.668;2023-06-26T02:24:53;12.95;;;4.45;;
71777;SDS011;59609;52.430;4.668;2023-06-26T02:27:19;21.65;;;5.43;;
71777;SDS011;59609;52.430;4.668;2023-06-26T02:29:44;16.98;;;4.55;;
71777;SDS011;59609;52.430;4.668;2023-06-26T02:32:13;14.00;;;4.32;;
71777;SDS011;59609;52.430;4.668;2023-06-26T02:34:38;16.00;;;4.22;;
71777;SDS011;59609;52.430;4.668;2023-06-26T02:37:03;12.07;;;4.20;;
71777;SDS011;59609;52.430;4.668;2023-06-26T02:39:31;9.60;;;3.28;;
71777;SDS011;59609;52.430;4.668;2023-06-26T02:41:59;12.45;;;3.88;;
71777;SDS011;59609;52.430;4.668;2023-06-26T02:44:25;10.35;;;3.55;;
71777;SDS011;59609;52.430;4.668;2023-06-26T02:46:50;11.02;;;3.60;;
71777;SDS011;59609;52.430;4.668;2023-06-26T02:49:19;9.55;;;3.72;;
71777;SDS011;59609;52.430;4.668;2023-06-26T02:51:44;9.65;;;3.60;;
71777;SDS011;59609;52.430;4.668;2023-06-26T02:54:12;10.95;;;3.70;;
71777;SDS011;59609;52.430;4.668;2023-06-26T02:56:38;14.20;;;3.63;;
71777;SDS011;59609;52.430;4.668;2023-06-26T02:59:03;9.48;;;3.67;;
71777;SDS011;59609;52.430;4.668;2023-06-26T03:01:41;7.75;;;3.20;;
71777;SDS011;59609;52.430;4.668;2023-06-26T03:04:06;10.23;;;3.53;;
71777;SDS011;59609;52.430;4.668;2023-06-26T03:06:32;11.30;;;3.58;;
71777;SDS011;59609;52.430;4.668;2023-06-26T03:08:57;9.45;;;3.65;;
71777;SDS011;59609;52.430;4.668;2023-06-26T03:11:22;9.95;;;3.03;;
71777;SDS011;59609;52.430;4.668;2023-06-26T03:13:57;7.85;;;3.20;;
71777;SDS011;59609;52.430;4.668;2023-06-26T03:16:22;9.55;;;3.20;;
71777;SDS011;59609;52.430;4.668;2023-06-26T03:18:51;6.00;;;2.70;;
71777;SDS011;59609;52.430;4.668;2023-06-26T03:21:16;8.05;;;3.17;;
71777;SDS011;59609;52.430;4.668;2023-06-26T03:23:45;10.18;;;3.05;;
71777;SDS011;59609;52.430;4.668;2023-06-26T03:26:10;9.60;;;2.97;;
71777;SDS011;59609;52.430;4.668;2023-06-26T03:28:36;5.68;;;2.67;;
71777;SDS011;59609;52.430;4.668;2023-06-26T03:31:01;7.85;;;3.42;;
71777;SDS011;59609;52.430;4.668;2023-06-26T03:33:26;6.05;;;2.85;;
71777;SDS011;59609;52.430;4.668;2023-06-26T03:35:52;6.47;;;2.83;;
71777;SDS011;59609;52.430;4.668;2023-06-26T03:38:18;5.95;;;2.90;;
71777;SDS011;59609;52.430;4.668;2023-06-26T03:40:44;6.97;;;2.85;;
71777;SDS011;59609;52.430;4.668;2023-06-26T03:43:09;7.38;;;3.05;;
71777;SDS011;59609;52.430;4.668;2023-06-26T03:45:41;5.30;;;2.80;;
71777;SDS011;59609;52.430;4.668;2023-06-26T03:48:06;8.55;;;2.80;;
71777;SDS011;59609;52.430;4.668;2023-06-26T03:50:42;9.63;;;3.17;;
71777;SDS011;59609;52.430;4.668;2023-06-26T03:53:07;8.98;;;2.70;;
71777;SDS011;59609;52.430;4.668;2023-06-26T03:55:32;7.05;;;2.60;;
71777;SDS011;59609;52.430;4.668;2023-06-26T03:58:02;4.93;;;2.58;;
71777;SDS011;59609;52.430;4.668;2023-06-26T04:00:27;6.00;;;2.50;;
71777;SDS011;59609;52.430;4.668;2023-06-26T04:02:53;9.52;;;2.65;;
71777;SDS011;59609;52.430;4.668;2023-06-26T04:05:18;12.73;;;2.80;;
71777;SDS011;59609;52.430;4.668;2023-06-26T04:07:44;8.02;;;2.40;;
71777;SDS011;59609;52.430;4.668;2023-06-26T04:10:10;4.40;;;2.22;;
71777;SDS011;59609;52.430;4.668;2023-06-26T04:12:35;6.88;;;2.50;;
71777;SDS011;59609;52.430;4.668;2023-06-26T04:15:04;5.78;;;2.63;;
71777;SDS011;59609;52.430;4.668;2023-06-26T04:17:32;5.50;;;2.50;;
71777;SDS011;59609;52.430;4.668;2023-06-26T04:20:01;6.20;;;2.38;;
71777;SDS011;59609;52.430;4.668;2023-06-26T04:22:31;6.60;;;2.65;;
71777;SDS011;59609;52.430;4.668;2023-06-26T04:25:08;6.32;;;2.42;;
71777;SDS011;59609;52.430;4.668;2023-06-26T04:27:34;4.55;;;2.40;;
71777;SDS011;59609;52.430;4.668;2023-06-26T04:30:05;8.85;;;2.47;;
71777;SDS011;59609;52.430;4.668;2023-06-26T04:32:34;5.45;;;2.38;;
71777;SDS011;59609;52.430;4.668;2023-06-26T04:34:59;5.88;;;2.50;;
71777;SDS011;59609;52.430;4.668;2023-06-26T04:37:25;6.82;;;2.22;;
71777;SDS011;59609;52.430;4.668;2023-06-26T04:39:50;4.57;;;2.75;;
71777;SDS011;59609;52.430;4.668;2023-06-26T04:42:16;7.57;;;2.55;;
71777;SDS011;59609;52.430;4.668;2023-06-26T04:44:41;6.85;;;2.22;;
71777;SDS011;59609;52.430;4.668;2023-06-26T04:47:08;5.03;;;2.72;;
71777;SDS011;59609;52.430;4.668;2023-06-26T04:49:36;5.25;;;2.40;;
71777;SDS011;59609;52.430;4.668;2023-06-26T04:52:01;7.47;;;2.03;;
71777;SDS011;59609;52.430;4.668;2023-06-26T04:54:30;8.10;;;2.47;;
71777;SDS011;59609;52.430;4.668;2023-06-26T04:59:21;6.13;;;2.30;;
71777;SDS011;59609;52.430;4.668;2023-06-26T05:01:47;4.15;;;2.08;;
71777;SDS011;59609;52.430;4.668;2023-06-26T05:04:16;7.60;;;2.22;;
71777;SDS011;59609;52.430;4.668;2023-06-26T05:06:41;4.72;;;2.08;;
71777;SDS011;59609;52.430;4.668;2023-06-26T05:09:07;8.18;;;2.60;;
71777;SDS011;59609;52.430;4.668;2023-06-26T05:11:38;6.85;;;2.58;;
71777;SDS011;59609;52.430;4.668;2023-06-26T05:14:09;6.40;;;2.10;;
71777;SDS011;59609;52.430;4.668;2023-06-26T05:16:35;5.95;;;2.22;;
71777;SDS011;59609;52.430;4.668;2023-06-26T05:19:01;3.47;;;2.17;;
71777;SDS011;59609;52.430;4.668;2023-06-26T05:21:27;6.57;;;2.53;;
71777;SDS011;59609;52.430;4.668;2023-06-26T05:23:53;5.80;;;2.28;;
71777;SDS011;59609;52.430;4.668;2023-06-26T05:26:30;9.82;;;2.50;;
71777;SDS011;59609;52.430;4.668;2023-06-26T05:28:56;4.72;;;2.30;;
71777;SDS011;59609;52.430;4.668;2023-06-26T05:31:27;4.57;;;2.40;;
71777;SDS011;59609;52.430;4.668;2023-06-26T05:33:55;7.00;;;2.25;;
71777;SDS011;59609;52.430;4.668;2023-06-26T05:36:25;3.65;;;2.25;;
71777;SDS011;59609;52.430;4.668;2023-06-26T05:38:51;7.68;;;2.33;;
71777;SDS011;59609;52.430;4.668;2023-06-26T05:41:17;7.93;;;2.22;;
71777;SDS011;59609;52.430;4.668;2023-06-26T05:43:43;4.47;;;2.30;;
71777;SDS011;59609;52.430;4.668;2023-06-26T05:46:11;6.18;;;2.63;;
71777;SDS011;59609;52.430;4.668;2023-06-26T05:48:37;12.43;;;2.65;;
71777;SDS011;59609;52.430;4.668;2023-06-26T05:51:03;5.82;;;2.60;;
71777;SDS011;59609;52.430;4.668;2023-06-26T05:53:39;4.53;;;2.03;;
71777;SDS011;59609;52.430;4.668;2023-06-26T05:56:11;6.63;;;2.65;;
71777;SDS011;59609;52.430;4.668;2023-06-26T05:58:37;9.05;;;2.20;;
71777;SDS011;59609;52.430;4.668;2023-06-26T06:01:02;7.60;;;2.40;;
71777;SDS011;59609;52.430;4.668;2023-06-26T06:03:28;8.95;;;2.03;;
71777;SDS011;59609;52.430;4.668;2023-06-26T06:05:53;7.03;;;2.60;;
71777;SDS011;59609;52.430;4.668;2023-06-26T06:08:18;6.63;;;2.50;;
71777;SDS011;59609;52.430;4.668;2023-06-26T06:10:44;6.25;;;2.42;;
71777;SDS011;59609;52.430;4.668;2023-06-26T06:13:09;5.88;;;2.03;;
71777;SDS011;59609;52.430;4.668;2023-06-26T06:15:35;6.13;;;2.33;;
71777;SDS011;59609;52.430;4.668;2023-06-26T06:18:00;7.32;;;2.22;;
71777;SDS011;59609;52.430;4.668;2023-06-26T06:20:26;6.63;;;2.50;;
71777;SDS011;59609;52.430;4.668;2023-06-26T06:22:51;8.45;;;2.28;;
71777;SDS011;59609;52.430;4.668;2023-06-26T06:25:19;7.63;;;2.30;;
71777;SDS011;59609;52.430;4.668;2023-06-26T06:27:48;6.53;;;2.22;;
71777;SDS011;59609;52.430;4.668;2023-06-26T06:30:13;8.30;;;2.33;;
71777;SDS011;59609;52.430;4.668;2023-06-26T06:32:39;4.40;;;1.75;;
71777;SDS011;59609;52.430;4.668;2023-06-26T06:35:07;5.63;;;2.03;;
71777;SDS011;59609;52.430;4.668;2023-06-26T06:37:48;5.78;;;2.85;;
71777;SDS011;59609;52.430;4.668;2023-06-26T06:40:20;4.22;;;1.83;;
71777;SDS011;59609;52.430;4.668;2023-06-26T06:42:47;4.95;;;1.95;;
71777;SDS011;59609;52.430;4.668;2023-06-26T06:45:13;6.28;;;1.30;;
71777;SDS011;59609;52.430;4.668;2023-06-26T06:47:38;5.28;;;1.48;;
71777;SDS011;59609;52.430;4.668;2023-06-26T06:50:03;3.72;;;1.60;;
71777;SDS011;59609;52.430;4.668;2023-06-26T06:52:42;9.93;;;1.83;;
71777;SDS011;59609;52.430;4.668;2023-06-26T06:57:55;6.18;;;1.25;;
71777;SDS011;59609;52.430;4.668;2023-06-26T07:00:21;5.80;;;1.75;;
71777;SDS011;59609;52.430;4.668;2023-06-26T07:02:52;6.35;;;1.30;;
71777;SDS011;59609;52.430;4.668;2023-06-26T07:05:18;5.15;;;1.30;;
71777;SDS011;59609;52.430;4.668;2023-06-26T07:07:49;8.05;;;1.50;;
71777;SDS011;59609;52.430;4.668;2023-06-26T07:10:14;5.72;;;1.40;;
71777;SDS011;59609;52.430;4.668;2023-06-26T07:12:46;2.17;;;1.05;;
71777;SDS011;59609;52.430;4.668;2023-06-26T07:15:11;5.68;;;1.42;;
71777;SDS011;59609;52.430;4.668;2023-06-26T07:17:37;3.08;;;1.30;;
71777;SDS011;59609;52.430;4.668;2023-06-26T07:22:52;3.58;;;1.42;;
71777;SDS011;59609;52.430;4.668;2023-06-26T07:25:24;5.53;;;1.30;;
71777;SDS011;59609;52.430;4.668;2023-06-26T07:27:49;5.78;;;1.30;;
71777;SDS011;59609;52.430;4.668;2023-06-26T07:30:15;8.00;;;1.55;;
71777;SDS011;59609;52.430;4.668;2023-06-26T07:32:44;6.57;;;1.40;;
71777;SDS011;59609;52.430;4.668;2023-06-26T07:35:10;6.47;;;1.30;;
71777;SDS011;59609;52.430;4.668;2023-06-26T07:37:35;4.50;;;1.25;;
71777;SDS011;59609;52.430;4.668;2023-06-26T07:40:13;8.63;;;1.50;;
71777;SDS011;59609;52.430;4.668;2023-06-26T07:42:41;6.53;;;1.35;;
71777;SDS011;59609;52.430;4.668;2023-06-26T07:45:10;4.45;;;1.20;;
71777;SDS011;59609;52.430;4.668;2023-06-26T07:47:37;6.63;;;1.23;;
71777;SDS011;59609;52.430;4.668;2023-06-26T07:50:06;6.47;;;1.25;;
71777;SDS011;59609;52.430;4.668;2023-06-26T07:52:32;9.73;;;1.67;;
71777;SDS011;59609;52.430;4.668;2023-06-26T07:54:57;7.93;;;1.60;;
71777;SDS011;59609;52.430;4.668;2023-06-26T07:57:23;5.75;;;1.50;;
71777;SDS011;59609;52.430;4.668;2023-06-26T07:59:49;4.30;;;1.80;;
71777;SDS011;59609;52.430;4.668;2023-06-26T08:02:18;4.40;;;1.38;;
71777;SDS011;59609;52.430;4.668;2023-06-26T08:04:49;8.65;;;1.70;;
71777;SDS011;59609;52.430;4.668;2023-06-26T08:07:15;5.32;;;1.50;;
71777;SDS011;59609;52.430;4.668;2023-06-26T08:09:43;5.55;;;1.50;;
71777;SDS011;59609;52.430;4.668;2023-06-26T08:12:11;7.25;;;1.33;;
71777;SDS011;59609;52.430;4.668;2023-06-26T08:14:43;9.90;;;1.52;;
71777;SDS011;59609;52.430;4.668;2023-06-26T08:17:08;6.70;;;1.50;;
71777;SDS011;59609;52.430;4.668;2023-06-26T08:19:36;6.65;;;1.30;;
71777;SDS011;59609;52.430;4.668;2023-06-26T08:22:02;5.85;;;1.48;;
71777;SDS011;59609;52.430;4.668;2023-06-26T08:24:27;5.45;;;1.25;;
71777;SDS011;59609;52.430;4.668;2023-06-26T08:26:56;7.55;;;2.45;;
71777;SDS011;59609;52.430;4.668;2023-06-26T08:29:27;5.10;;;1.23;;
71777;SDS011;59609;52.430;4.668;2023-06-26T08:31:53;7.45;;;1.90;;
71777;SDS011;59609;52.430;4.668;2023-06-26T08:34:21;3.00;;;1.35;;
71777;SDS011;59609;52.430;4.668;2023-06-26T08:36:50;11.38;;;1.73;;
71777;SDS011;59609;52.430;4.668;2023-06-26T08:39:24;6.60;;;1.88;;
71777;SDS011;59609;52.430;4.668;2023-06-26T08:41:50;7.13;;;1.60;;
71777;SDS011;59609;52.430;4.668;2023-06-26T08:44:15;7.85;;;1.80;;
71777;SDS011;59609;52.430;4.668;2023-06-26T08:46:41;5.30;;;1.50;;
71777;SDS011;59609;52.430;4.668;2023-06-26T08:54:57;3.72;;;1.30;;
71777;SDS011;59609;52.430;4.668;2023-06-26T08:57:30;8.35;;;1.40;;
71777;SDS011;59609;52.430;4.668;2023-06-26T09:00:12;4.80;;;1.40;;
71777;SDS011;59609;52.430;4.668;2023-06-26T09:02:39;5.95;;;1.15;;
71777;SDS011;59609;52.430;4.668;2023-06-26T09:05:06;7.10;;;1.52;;
71777;SDS011;59609;52.430;4.668;2023-06-26T09:07:31;6.72;;;1.58;;
71777;SDS011;59609;52.430;4.668;2023-06-26T09:09:57;7.63;;;1.60;;
71777;SDS011;59609;52.430;4.668;2023-06-26T09:12:29;6.00;;;1.50;;
71777;SDS011;59609;52.430;4.668;2023-06-26T09:14:56;4.10;;;1.30;;
71777;SDS011;59609;52.430;4.668;2023-06-26T09:17:25;8.75;;;1.60;;
71777;SDS011;59609;52.430;4.668;2023-06-26T09:19:57;5.50;;;1.67;;
71777;SDS011;59609;52.430;4.668;2023-06-26T09:22:29;5.15;;;0.98;;
71777;SDS011;59609;52.430;4.668;2023-06-26T09:25:02;6.32;;;1.30;;
71777;SDS011;59609;52.430;4.668;2023-06-26T09:27:28;8.65;;;1.70;;
71777;SDS011;59609;52.430;4.668;2023-06-26T09:29:59;5.90;;;1.58;;
71777;SDS011;59609;52.430;4.668;2023-06-26T09:32:27;10.02;;;1.77;;
71777;SDS011;59609;52.430;4.668;2023-06-26T09:34:53;8.77;;;1.70;;
71777;SDS011;59609;52.430;4.668;2023-06-26T09:37:20;6.75;;;1.70;;
71777;SDS011;59609;52.430;4.668;2023-06-26T09:39:46;7.40;;;1.70;;
71777;SDS011;59609;52.430;4.668;2023-06-26T09:42:14;5.07;;;1.35;;
71777;SDS011;59609;52.430;4.668;2023-06-26T09:44:43;3.63;;;1.20;;
71777;SDS011;59609;52.430;4.668;2023-06-26T09:47:19;6.20;;;1.40;;
71777;SDS011;59609;52.430;4.668;2023-06-26T09:49:45;6.13;;;1.48;;
71777;SDS011;59609;52.430;4.668;2023-06-26T09:52:14;5.15;;;1.20;;
71777;SDS011;59609;52.430;4.668;2023-06-26T09:54:45;5.97;;;1.42;;
71777;SDS011;59609;52.430;4.668;2023-06-26T09:57:34;4.38;;;1.23;;
71777;SDS011;59609;52.430;4.668;2023-06-26T09:59:59;5.30;;;1.50;;
71777;SDS011;59609;52.430;4.668;2023-06-26T10:02:24;5.57;;;1.50;;
71777;SDS011;59609;52.430;4.668;2023-06-26T10:04:50;6.25;;;1.30;;
71777;SDS011;59609;52.430;4.668;2023-06-26T10:07:18;4.00;;;1.42;;
71777;SDS011;59609;52.430;4.668;2023-06-26T10:09:47;8.52;;;1.65;;
71777;SDS011;59609;52.430;4.668;2023-06-26T10:12:17;6.72;;;1.40;;
71777;SDS011;59609;52.430;4.668;2023-06-26T10:14:46;8.85;;;1.42;;
71777;SDS011;59609;52.430;4.668;2023-06-26T10:17:15;9.90;;;1.40;;
71777;SDS011;59609;52.430;4.668;2023-06-26T10:19:44;7.50;;;1.50;;
71777;SDS011;59609;52.430;4.668;2023-06-26T10:22:11;4.95;;;1.08;;
71777;SDS011;59609;52.430;4.668;2023-06-26T10:24:47;7.70;;;1.80;;
71777;SDS011;59609;52.430;4.668;2023-06-26T10:29:58;4.05;;;1.17;;
71777;SDS011;59609;52.430;4.668;2023-06-26T10:32:32;6.07;;;1.70;;
71777;SDS011;59609;52.430;4.668;2023-06-26T10:34:58;4.80;;;1.42;;
71777;SDS011;59609;52.430;4.668;2023-06-26T10:37:43;8.13;;;1.60;;
71777;SDS011;59609;52.430;4.668;2023-06-26T10:43:05;5.82;;;1.50;;
71777;SDS011;59609;52.430;4.668;2023-06-26T10:47:58;5.20;;;1.42;;
71777;SDS011;59609;52.430;4.668;2023-06-26T10:50:27;6.63;;;1.42;;
71777;SDS011;59609;52.430;4.668;2023-06-26T10:55:55;7.50;;;1.60;;
71777;SDS011;59609;52.430;4.668;2023-06-26T10:58:34;4.93;;;1.10;;
71777;SDS011;59609;52.430;4.668;2023-06-26T11:03:49;5.63;;;1.83;;
71777;SDS011;59609;52.430;4.668;2023-06-26T11:06:37;4.40;;;1.92;;
71777;SDS011;59609;52.430;4.668;2023-06-26T11:09:10;4.75;;;1.50;;
71777;SDS011;59609;52.430;4.668;2023-06-26T11:14:19;5.55;;;1.40;;
71777;SDS011;59609;52.430;4.668;2023-06-26T11:16:48;5.88;;;1.90;;
71777;SDS011;59609;52.430;4.668;2023-06-26T11:19:17;6.25;;;1.40;;
71777;SDS011;59609;52.430;4.668;2023-06-26T11:21:44;4.68;;;1.60;;
71777;SDS011;59609;52.430;4.668;2023-06-26T11:24:13;7.18;;;1.65;;
71777;SDS011;59609;52.430;4.668;2023-06-26T11:26:39;4.43;;;1.33;;
71777;SDS011;59609;52.430;4.668;2023-06-26T11:29:08;3.80;;;1.27;;
71777;SDS011;59609;52.430;4.668;2023-06-26T11:31:35;12.20;;;1.50;;
71777;SDS011;59609;52.430;4.668;2023-06-26T11:34:05;4.05;;;1.30;;
71777;SDS011;59609;52.430;4.668;2023-06-26T11:36:36;5.28;;;1.27;;
71777;SDS011;59609;52.430;4.668;2023-06-26T11:39:03;3.83;;;1.38;;
71777;SDS011;59609;52.430;4.668;2023-06-26T11:41:35;7.18;;;1.73;;
71777;SDS011;59609;52.430;4.668;2023-06-26T11:44:05;4.30;;;1.38;;
71777;SDS011;59609;52.430;4.668;2023-06-26T11:46:35;3.83;;;1.40;;
71777;SDS011;59609;52.430;4.668;2023-06-26T11:49:07;2.65;;;1.38;;
71777;SDS011;59609;52.430;4.668;2023-06-26T11:51:33;6.38;;;1.30;;
71777;SDS011;59609;52.430;4.668;2023-06-26T11:54:00;6.75;;;1.50;;
71777;SDS011;59609;52.430;4.668;2023-06-26T11:56:31;5.45;;;1.50;;
71777;SDS011;59609;52.430;4.668;2023-06-26T12:01:43;5.50;;;1.60;;
71777;SDS011;59609;52.430;4.668;2023-06-26T12:04:13;3.70;;;1.40;;
71777;SDS011;59609;52.430;4.668;2023-06-26T12:06:53;4.45;;;1.15;;
71777;SDS011;59609;52.430;4.668;2023-06-26T12:09:22;3.08;;;1.63;;
71777;SDS011;59609;52.430;4.668;2023-06-26T12:11:54;3.72;;;1.30;;
71777;SDS011;59609;52.430;4.668;2023-06-26T12:14:21;5.10;;;1.95;;
71777;SDS011;59609;52.430;4.668;2023-06-26T12:17:03;4.78;;;1.85;;
71777;SDS011;59609;52.430;4.668;2023-06-26T12:19:30;3.90;;;1.30;;
71777;SDS011;59609;52.430;4.668;2023-06-26T12:22:00;6.47;;;1.40;;
71777;SDS011;59609;52.430;4.668;2023-06-26T12:24:31;4.45;;;1.35;;
71777;SDS011;59609;52.430;4.668;2023-06-26T12:26:56;4.85;;;1.50;;
71777;SDS011;59609;52.430;4.668;2023-06-26T12:29:29;6.00;;;1.70;;
71777;SDS011;59609;52.430;4.668;2023-06-26T12:31:57;4.70;;;1.60;;
71777;SDS011;59609;52.430;4.668;2023-06-26T12:37:13;2.80;;;1.30;;
71777;SDS011;59609;52.430;4.668;2023-06-26T12:39:49;1.85;;;1.20;;
71777;SDS011;59609;52.430;4.668;2023-06-26T12:42:22;4.22;;;1.58;;
71777;SDS011;59609;52.430;4.668;2023-06-26T12:44:58;6.93;;;1.65;;
71777;SDS011;59609;52.430;4.668;2023-06-26T12:47:29;4.43;;;1.55;;
71777;SDS011;59609;52.430;4.668;2023-06-26T12:50:04;3.55;;;1.58;;
71777;SDS011;59609;52.430;4.668;2023-06-26T12:52:30;3.03;;;1.33;;
71777;SDS011;59609;52.430;4.668;2023-06-26T12:54:56;4.65;;;1.27;;
71777;SDS011;59609;52.430;4.668;2023-06-26T12:57:31;4.85;;;1.40;;
71777;SDS011;59609;52.430;4.668;2023-06-26T12:59:57;7.22;;;1.45;;
71777;SDS011;59609;52.430;4.668;2023-06-26T13:02:22;4.20;;;1.50;;
71777;SDS011;59609;52.430;4.668;2023-06-26T13:04:47;4.00;;;1.50;;
71777;SDS011;59609;52.430;4.668;2023-06-26T13:07:13;4.05;;;1.40;;
71777;SDS011;59609;52.430;4.668;2023-06-26T13:09:38;4.65;;;1.20;;
71777;SDS011;59609;52.430;4.668;2023-06-26T13:12:08;5.53;;;1.60;;
71777;SDS011;59609;52.430;4.668;2023-06-26T13:14:33;3.80;;;1.63;;
71777;SDS011;59609;52.430;4.668;2023-06-26T13:17:00;5.65;;;1.13;;
71777;SDS011;59609;52.430;4.668;2023-06-26T13:19:26;6.53;;;1.40;;
71777;SDS011;59609;52.430;4.668;2023-06-26T13:21:51;7.15;;;1.55;;
71777;SDS011;59609;52.430;4.668;2023-06-26T13:24:17;3.47;;;1.50;;
71777;SDS011;59609;52.430;4.668;2023-06-26T13:26:42;5.55;;;1.40;;
71777;SDS011;59609;52.430;4.668;2023-06-26T13:29:08;4.95;;;1.58;;
71777;SDS011;59609;52.430;4.668;2023-06-26T13:31:39;20.80;;;2.08;;
71777;SDS011;59609;52.430;4.668;2023-06-26T13:34:08;15.50;;;2.03;;
71777;SDS011;59609;52.430;4.668;2023-06-26T13:36:39;4.85;;;1.30;;
71777;SDS011;59609;52.430;4.668;2023-06-26T13:39:05;8.02;;;1.50;;
71777;SDS011;59609;52.430;4.668;2023-06-26T13:41:30;5.60;;;1.70;;
71777;SDS011;59609;52.430;4.668;2023-06-26T13:43:55;4.55;;;1.60;;
71777;SDS011;59609;52.430;4.668;2023-06-26T13:46:21;4.47;;;1.60;;
71777;SDS011;59609;52.430;4.668;2023-06-26T13:48:46;3.60;;;1.35;;
71777;SDS011;59609;52.430;4.668;2023-06-26T13:51:12;2.78;;;1.20;;
71777;SDS011;59609;52.430;4.668;2023-06-26T13:53:40;2.42;;;1.23;;
71777;SDS011;59609;52.430;4.668;2023-06-26T13:56:05;3.67;;;1.50;;
71777;SDS011;59609;52.430;4.668;2023-06-26T13:58:31;4.70;;;1.52;;
71777;SDS011;59609;52.430;4.668;2023-06-26T14:00:58;4.88;;;1.38;;
71777;SDS011;59609;52.430;4.668;2023-06-26T14:03:25;3.10;;;1.45;;
71777;SDS011;59609;52.430;4.668;2023-06-26T14:05:51;4.70;;;1.60;;
71777;SDS011;59609;52.430;4.668;2023-06-26T14:08:16;3.17;;;1.10;;
71777;SDS011;59609;52.430;4.668;2023-06-26T14:10:42;3.28;;;1.30;;
71777;SDS011;59609;52.430;4.668;2023-06-26T14:13:08;2.53;;;1.20;;
71777;SDS011;59609;52.430;4.668;2023-06-26T14:15:37;5.00;;;1.70;;
71777;SDS011;59609;52.430;4.668;2023-06-26T14:18:04;3.30;;;1.20;;
71777;SDS011;59609;52.430;4.668;2023-06-26T14:20:29;6.90;;;1.40;;
71777;SDS011;59609;52.430;4.668;2023-06-26T14:25:23;2.63;;;1.20;;
71777;SDS011;59609;52.430;4.668;2023-06-26T14:27:48;5.25;;;1.40;;
71777;SDS011;59609;52.430;4.668;2023-06-26T14:30:13;4.47;;;1.45;;
71777;SDS011;59609;52.430;4.668;2023-06-26T14:32:42;1.75;;;1.25;;
71777;SDS011;59609;52.430;4.668;2023-06-26T14:35:07;3.40;;;1.17;;
71777;SDS011;59609;52.430;4.668;2023-06-26T14:37:35;1.85;;;1.38;;
71777;SDS011;59609;52.430;4.668;2023-06-26T14:40:05;3.78;;;1.02;;
71777;SDS011;59609;52.430;4.668;2023-06-26T14:42:32;4.25;;;1.50;;
71777;SDS011;59609;52.430;4.668;2023-06-26T14:44:58;4.13;;;1.15;;
71777;SDS011;59609;52.430;4.668;2023-06-26T14:47:24;3.63;;;1.15;;
71777;SDS011;59609;52.430;4.668;2023-06-26T14:49:49;1.15;;;1.05;;
71777;SDS011;59609;52.430;4.668;2023-06-26T14:52:15;2.83;;;1.25;;
71777;SDS011;59609;52.430;4.668;2023-06-26T14:54:40;2.97;;;1.15;;
71777;SDS011;59609;52.430;4.668;2023-06-26T14:57:06;4.28;;;1.23;;
71777;SDS011;59609;52.430;4.668;2023-06-26T14:59:32;3.85;;;1.20;;
71777;SDS011;59609;52.430;4.668;2023-06-26T15:01:57;5.25;;;1.30;;
71777;SDS011;59609;52.430;4.668;2023-06-26T15:04:23;3.60;;;1.13;;
71777;SDS011;59609;52.430;4.668;2023-06-26T15:06:48;2.15;;;1.30;;
71777;SDS011;59609;52.430;4.668;2023-06-26T15:09:14;3.38;;;1.25;;
71777;SDS011;59609;52.430;4.668;2023-06-26T15:11:39;4.03;;;1.63;;
71777;SDS011;59609;52.430;4.668;2023-06-26T15:14:05;2.58;;;1.10;;
71777;SDS011;59609;52.430;4.668;2023-06-26T15:16:30;5.68;;;1.42;;
71777;SDS011;59609;52.430;4.668;2023-06-26T15:18:55;3.75;;;1.17;;
71777;SDS011;59609;52.430;4.668;2023-06-26T15:21:21;2.17;;;1.45;;
71777;SDS011;59609;52.430;4.668;2023-06-26T15:23:47;4.95;;;1.60;;
71777;SDS011;59609;52.430;4.668;2023-06-26T15:26:12;3.85;;;1.60;;
71777;SDS011;59609;52.430;4.668;2023-06-26T15:28:38;5.45;;;1.38;;
71777;SDS011;59609;52.430;4.668;2023-06-26T15:31:16;2.88;;;1.35;;
71777;SDS011;59609;52.430;4.668;2023-06-26T15:33:42;3.50;;;1.13;;
71777;SDS011;59609;52.430;4.668;2023-06-26T15:36:07;3.47;;;1.50;;
71777;SDS011;59609;52.430;4.668;2023-06-26T15:38:33;3.03;;;1.15;;
71777;SDS011;59609;52.430;4.668;2023-06-26T15:41:01;4.60;;;1.20;;
71777;SDS011;59609;52.430;4.668;2023-06-26T15:43:28;2.00;;;1.27;;
71777;SDS011;59609;52.430;4.668;2023-06-26T15:45:53;2.63;;;1.30;;
71777;SDS011;59609;52.430;4.668;2023-06-26T15:48:18;2.38;;;1.25;;